Time;durP1;ratioP1;P1;durP2;ratioP2;P2;SDS_P1;SDS_P2;PMS_P1;PMS_P2;Temp;Humidity;BMP_temperature;BMP_pressure;BME280_temperature;BME280_humidity;BME280_pressure;Samples;Min_cycle;Max_cycle;Signal;HPM_P1;HPM_P2
2022/10/21 00:01:40;;;;;;;6.80;1.55;;;11.80;99.90;;;;;;5006741;28;20050;-65
2022/10/21 00:04:07;;;;;;;8.77;2.17;;;11.80;99.90;;;;;;5006474;28;20137;-65
2022/10/21 00:06:34;;;;;;;5.70;2.15;;;11.90;99.90;;;;;;5006980;28;20131;-65
2022/10/21 00:09:00;;;;;;;5.32;1.92;;;11.90;99.90;;;;;;5006149;28;20050;-65
2022/10/21 00:11:27;;;;;;;7.28;1.90;;;12.00;99.90;;;;;;5006159;28;20057;-66
2022/10/21 00:13:54;;;;;;;6.10;1.58;;;12.00;99.90;;;;;;5005209;28;20069;-65
2022/10/21 00:16:20;;;;;;;3.17;1.58;;;11.90;99.90;;;;;;5008726;28;20054;-65
2022/10/21 00:18:47;;;;;;;8.05;2.60;;;12.00;99.90;;;;;;5008203;28;20053;-64
2022/10/21 00:21:20;;;;;;;12.82;2.40;;;12.00;99.90;;;;;;5008120;28;20045;-65
2022/10/21 00:23:47;;;;;;;7.22;2.13;;;12.00;99.90;;;;;;5007602;28;20057;-64
2022/10/21 00:26:14;;;;;;;7.68;2.05;;;12.10;99.90;;;;;;5008408;28;20505;-65
2022/10/21 00:28:41;;;;;;;7.25;1.98;;;12.10;99.90;;;;;;5007167;28;20504;-64
2022/10/21 00:31:08;;;;;;;7.80;2.08;;;12.10;99.90;;;;;;5008192;28;20052;-64
2022/10/21 00:33:35;;;;;;;7.07;2.20;;;12.10;99.90;;;;;;5008296;28;20042;-65
2022/10/21 00:36:02;;;;;;;4.35;2.38;;;12.10;99.90;;;;;;5008347;28;20038;-65
2022/10/21 00:38:30;;;;;;;3.97;1.48;;;12.10;99.90;;;;;;5008283;28;20049;-65
2022/10/21 00:40:57;;;;;;;6.03;1.95;;;12.10;99.90;;;;;;5008103;28;20053;-64
2022/10/21 00:43:24;;;;;;;9.73;1.95;;;12.20;99.90;;;;;;5008137;28;20046;-64
2022/10/21 00:45:53;;;;;;;10.05;2.08;;;12.20;99.90;;;;;;5007406;28;20049;-64
2022/10/21 00:48:28;;;;;;;11.05;2.83;;;12.30;99.90;;;;;;5010799;28;20489;-64
2022/10/21 00:51:15;;;;;;;4.47;1.60;;;12.20;99.90;;;;;;5010219;28;20058;-64
2022/10/21 00:53:44;;;;;;;14.40;1.88;;;12.20;99.90;;;;;;5009846;28;20072;-65
2022/10/21 00:56:37;;;;;;;8.25;2.05;;;12.20;99.90;;;;;;5007954;28;20088;-64
2022/10/21 00:59:04;;;;;;;4.93;1.30;;;12.10;99.90;;;;;;5009135;28;20072;-64
2022/10/21 01:01:31;;;;;;;10.02;1.95;;;12.10;99.90;;;;;;5010671;28;20046;-64
2022/10/21 01:04:00;;;;;;;6.35;1.98;;;12.20;99.90;;;;;;5010694;28;20128;-64
2022/10/21 01:06:27;;;;;;;3.30;1.60;;;12.20;99.90;;;;;;5011899;28;20050;-62
2022/10/21 01:08:53;;;;;;;5.82;1.63;;;12.20;99.90;;;;;;5009879;28;20050;-64
2022/10/21 01:11:20;;;;;;;8.48;1.90;;;12.10;99.90;;;;;;5010637;28;20042;-64
2022/10/21 01:13:56;;;;;;;6.68;1.60;;;11.90;99.90;;;;;;5010761;28;20057;-64
2022/10/21 01:16:42;;;;;;;8.90;1.92;;;12.00;99.90;;;;;;5010778;28;20224;-65
2022/10/21 01:19:28;;;;;;;9.20;1.88;;;12.10;99.90;;;;;;5010334;28;20053;-64
2022/10/21 01:22:26;;;;;;;5.93;1.90;;;12.10;99.90;;;;;;5011787;28;20068;-64
2022/10/21 01:24:56;;;;;;;2.63;1.40;;;12.20;99.90;;;;;;4992226;28;20053;-64
2022/10/21 01:27:54;;;;;;;9.23;1.55;;;12.20;99.90;;;;;;5008433;28;20058;-63
2022/10/21 01:30:36;;;;;;;4.07;1.45;;;12.30;99.90;;;;;;5006979;28;20046;-65
2022/10/21 01:33:13;;;;;;;3.15;1.17;;;12.30;99.90;;;;;;5011073;28;20129;-63
2022/10/21 01:35:46;;;;;;;7.93;2.22;;;12.30;99.90;;;;;;5010939;28;20068;-63
2022/10/21 01:38:22;;;;;;;6.35;1.88;;;12.40;99.90;;;;;;5010485;28;20481;-64
2022/10/21 01:41:10;;;;;;;6.68;3.58;;;12.50;99.90;;;;;;4994732;28;20054;-65
2022/10/21 01:43:46;;;;;;;5.63;2.53;;;12.60;99.90;;;;;;5009653;28;20046;-64
2022/10/21 01:46:22;;;;;;;10.68;4.25;;;12.70;99.90;;;;;;5009918;28;20670;-63
2022/10/21 01:48:51;;;;;;;8.55;2.47;;;12.70;99.90;;;;;;5008558;28;20050;-63
2022/10/21 01:51:18;;;;;;;12.13;3.42;;;12.70;99.90;;;;;;5010014;28;20050;-64
2022/10/21 01:53:49;;;;;;;5.28;2.92;;;12.80;99.90;;;;;;5010010;28;20092;-64
2022/10/21 01:56:16;;;;;;;12.25;3.85;;;12.80;99.90;;;;;;5009897;28;20046;-64
2022/10/21 01:58:43;;;;;;;9.52;4.45;;;12.80;99.90;;;;;;4991966;28;20054;-63
2022/10/21 02:01:10;;;;;;;6.38;4.50;;;12.90;99.90;;;;;;5010008;28;20058;-64
2022/10/21 02:03:38;;;;;;;14.27;5.00;;;12.90;99.90;;;;;;5009865;28;20053;-64
2022/10/21 02:06:05;;;;;;;12.43;3.90;;;12.90;99.90;;;;;;5010140;28;20049;-64
2022/10/21 02:08:32;;;;;;;13.85;6.32;;;12.90;99.90;;;;;;5009554;28;20056;-63
2022/10/21 02:11:01;;;;;;;10.98;4.28;;;13.00;99.90;;;;;;5009773;28;20232;-64
2022/10/21 02:13:58;;;;;;;15.07;5.95;;;13.00;99.90;;;;;;5009209;28;20041;-64
2022/10/21 02:16:27;;;;;;;10.70;5.47;;;13.00;99.90;;;;;;4645184;28;10000704;-64
2022/10/21 02:18:55;;;;;;;11.15;5.90;;;13.00;99.90;;;;;;5004610;28;20505;-64
2022/10/21 02:21:22;;;;;;;8.00;5.20;;;13.00;99.90;;;;;;5010776;28;20133;-64
2022/10/21 02:24:04;;;;;;;10.02;5.63;;;13.10;99.90;;;;;;5009261;28;20050;-64
2022/10/21 02:26:31;;;;;;;14.73;6.07;;;13.10;99.90;;;;;;5027703;28;20096;-63
2022/10/21 02:28:57;;;;;;;11.30;5.82;;;13.20;99.90;;;;;;5009447;28;20049;-65
2022/10/21 02:31:46;;;;;;;13.35;6.65;;;13.20;99.90;;;;;;5010669;28;20045;-64
2022/10/21 02:34:20;;;;;;;8.30;6.30;;;13.30;99.90;;;;;;5009030;28;20041;-64
2022/10/21 02:37:28;;;;;;;7.93;6.10;;;13.40;99.90;;;;;;5009763;28;20053;-64
2022/10/21 02:40:26;;;;;;;11.75;5.55;;;13.40;99.90;;;;;;5009744;28;20049;-64
2022/10/21 02:43:14;;;;;;;9.60;5.72;;;13.40;99.90;;;;;;5009328;28;20504;-65
2022/10/21 02:45:41;;;;;;;13.02;5.90;;;13.40;99.90;;;;;;5009339;28;20049;-63
2022/10/21 02:48:08;;;;;;;12.68;6.80;;;13.50;99.90;;;;;;5010360;28;20061;-64
2022/10/21 02:50:34;;;;;;;13.95;7.40;;;13.50;99.90;;;;;;5009033;28;20045;-64
2022/10/21 02:53:01;;;;;;;11.25;6.75;;;13.50;99.90;;;;;;5008978;28;20064;-64
2022/10/21 02:55:28;;;;;;;13.60;7.15;;;13.60;99.90;;;;;;5010374;28;20425;-64
2022/10/21 02:57:54;;;;;;;15.95;6.20;;;13.60;99.90;;;;;;5010304;28;20058;-64
2022/10/21 03:00:21;;;;;;;11.13;6.88;;;13.50;99.90;;;;;;5012117;28;20059;-64
2022/10/21 03:02:48;;;;;;;13.18;7.55;;;13.50;99.90;;;;;;5013242;28;20046;-63
2022/10/21 03:05:15;;;;;;;16.15;7.78;;;13.50;99.90;;;;;;5012748;28;20050;-63
2022/10/21 03:07:41;;;;;;;14.25;8.70;;;13.50;99.90;;;;;;5011508;28;20050;-63
2022/10/21 03:10:08;;;;;;;17.45;8.40;;;13.60;99.90;;;;;;5011475;28;20056;-64
2022/10/21 03:12:35;;;;;;;13.13;8.82;;;13.60;99.90;;;;;;5012807;28;20050;-66
2022/10/21 03:15:02;;;;;;;15.05;7.90;;;13.60;99.90;;;;;;5009671;28;20144;-64
2022/10/21 03:17:29;;;;;;;13.82;8.88;;;13.70;99.90;;;;;;5009910;28;20046;-64
2022/10/21 03:19:56;;;;;;;10.40;7.90;;;13.70;99.90;;;;;;5009264;28;20057;-63
2022/10/21 03:22:22;;;;;;;17.80;9.68;;;13.70;99.90;;;;;;5010059;28;20237;-65
2022/10/21 03:24:49;;;;;;;15.80;9.98;;;13.80;99.90;;;;;;5009541;28;20049;-64
2022/10/21 03:27:16;;;;;;;15.48;9.48;;;13.80;99.90;;;;;;5009839;28;20049;-64
2022/10/21 03:29:42;;;;;;;21.48;10.18;;;13.90;99.90;;;;;;5009725;28;20053;-64
2022/10/21 03:32:09;;;;;;;16.50;9.95;;;14.00;99.90;;;;;;5011209;28;20046;-64
2022/10/21 03:34:36;;;;;;;22.40;10.77;;;14.00;99.90;;;;;;5010181;28;20049;-64
2022/10/21 03:37:02;;;;;;;16.95;11.35;;;14.10;99.90;;;;;;5009833;28;20046;-65
2022/10/21 03:39:29;;;;;;;19.70;10.80;;;14.20;99.90;;;;;;5010917;28;20054;-64
2022/10/21 03:41:56;;;;;;;19.20;11.88;;;14.20;99.90;;;;;;5011513;28;20049;-65
2022/10/21 03:44:23;;;;;;;18.20;11.23;;;14.30;99.90;;;;;;5012109;28;20049;-65
2022/10/21 03:46:49;;;;;;;21.02;13.32;;;14.40;99.90;;;;;;5011647;28;20050;-65
2022/10/21 03:49:16;;;;;;;23.58;12.52;;;14.50;99.90;;;;;;5011288;28;20065;-64
2022/10/21 03:51:49;;;;;;;23.98;12.55;;;14.50;99.90;;;;;;5010585;28;20069;-63
2022/10/21 03:54:16;;;;;;;23.75;10.43;;;14.60;99.90;;;;;;5011763;28;20060;-64
2022/10/21 03:56:43;;;;;;;17.13;11.02;;;14.60;99.90;;;;;;5011203;28;20667;-64
2022/10/21 03:59:10;;;;;;;18.60;10.02;;;14.60;99.90;;;;;;5010422;28;20053;-64
2022/10/21 04:01:36;;;;;;;18.58;11.10;;;14.60;99.90;;;;;;5010224;28;20046;-64
2022/10/21 04:04:03;;;;;;;19.05;11.55;;;14.60;99.90;;;;;;5000906;28;20054;-64
2022/10/21 04:06:30;;;;;;;15.88;11.00;;;14.60;99.90;;;;;;4996322;28;20485;-64
2022/10/21 04:08:57;;;;;;;20.13;11.40;;;14.60;99.90;;;;;;5010923;28;20050;-65
2022/10/21 04:11:24;;;;;;;19.73;11.07;;;14.60;99.90;;;;;;5011430;28;20132;-64
2022/10/21 04:13:50;;;;;;;17.67;10.48;;;14.50;99.90;;;;;;5011325;28;20136;-64
2022/10/21 04:16:18;;;;;;;13.73;10.07;;;14.50;99.90;;;;;;5011118;28;20057;-63
2022/10/21 04:18:45;;;;;;;20.83;10.73;;;14.50;99.90;;;;;;5010692;28;20046;-63
2022/10/21 04:21:12;;;;;;;15.10;9.52;;;14.50;99.90;;;;;;5010070;28;20062;-65
2022/10/21 04:23:39;;;;;;;14.57;10.43;;;14.50;99.90;;;;;;5009841;28;20038;-65
2022/10/21 04:26:06;;;;;;;12.02;9.95;;;14.40;99.90;;;;;;5009458;28;20085;-64
2022/10/21 04:28:33;;;;;;;19.60;10.80;;;14.30;99.90;;;;;;5008597;28;20103;-63
2022/10/21 04:31:00;;;;;;;18.35;10.48;;;14.30;99.90;;;;;;5009268;28;20050;-65
2022/10/21 04:33:27;;;;;;;18.90;10.43;;;14.20;99.90;;;;;;5008639;28;20120;-65
2022/10/21 04:35:54;;;;;;;21.15;12.05;;;14.10;99.90;;;;;;5008747;28;20050;-64
2022/10/21 04:38:21;;;;;;;13.27;9.57;;;14.10;99.90;;;;;;5008340;28;20081;-65
2022/10/21 04:40:57;;;;;;;17.20;9.70;;;14.10;99.90;;;;;;5008610;28;20046;-65
2022/10/21 04:43:24;;;;;;;17.70;10.75;;;14.00;99.90;;;;;;5008300;28;20038;-65
2022/10/21 04:45:51;;;;;;;17.20;11.27;;;14.00;99.90;;;;;;5008756;28;20054;-64
2022/10/21 04:48:19;;;;;;;15.68;9.85;;;13.90;99.90;;;;;;5008716;28;20038;-64
2022/10/21 04:50:49;;;;;;;21.80;12.30;;;13.90;99.90;;;;;;5008438;28;20089;-64
2022/10/21 04:53:16;;;;;;;17.08;10.25;;;13.80;99.90;;;;;;5007186;28;20057;-65
2022/10/21 04:55:43;;;;;;;17.38;11.52;;;13.80;99.90;;;;;;5008872;28;20054;-64
2022/10/21 04:58:10;;;;;;;20.40;11.52;;;13.70;99.90;;;;;;5008309;28;20505;-65
2022/10/21 05:00:36;;;;;;;18.55;10.82;;;13.70;99.90;;;;;;5008374;28;20501;-64
2022/10/21 05:03:03;;;;;;;15.35;10.60;;;13.60;99.90;;;;;;5008246;28;20041;-65
2022/10/21 05:05:30;;;;;;;18.00;10.57;;;13.60;99.90;;;;;;5007401;28;20042;-65
2022/10/21 05:07:56;;;;;;;16.52;10.02;;;13.50;99.90;;;;;;5008507;28;20057;-64
2022/10/21 05:10:24;;;;;;;14.90;9.50;;;13.50;99.90;;;;;;5004948;28;20053;-65
2022/10/21 05:12:51;;;;;;;18.15;9.27;;;13.50;99.90;;;;;;5008924;28;20405;-64
2022/10/21 05:15:18;;;;;;;22.58;9.80;;;13.50;99.90;;;;;;5008372;28;20132;-65
2022/10/21 05:17:45;;;;;;;17.73;9.70;;;13.50;99.90;;;;;;5007238;28;20057;-63
2022/10/21 05:20:12;;;;;;;17.02;9.82;;;13.50;99.90;;;;;;5007707;28;20054;-65
2022/10/21 05:22:39;;;;;;;19.17;9.98;;;13.60;99.90;;;;;;5008463;28;20100;-64
2022/10/21 05:25:06;;;;;;;18.92;10.63;;;13.70;99.90;;;;;;5007967;28;20056;-64
2022/10/21 05:27:33;;;;;;;19.70;9.13;;;13.70;99.90;;;;;;5008360;28;20046;-65
2022/10/21 05:30:00;;;;;;;25.70;11.00;;;13.70;99.90;;;;;;5007904;28;20045;-65
2022/10/21 05:32:27;;;;;;;17.98;10.13;;;13.70;99.90;;;;;;5008299;28;20049;-64
2022/10/21 05:34:53;;;;;;;16.42;10.02;;;13.70;99.90;;;;;;5011411;28;20076;-64
2022/10/21 05:37:20;;;;;;;19.85;10.27;;;13.70;99.90;;;;;;5011521;28;20575;-64
2022/10/21 05:39:47;;;;;;;17.10;11.25;;;13.70;99.90;;;;;;5011213;28;20056;-63
2022/10/21 05:42:13;;;;;;;16.80;10.02;;;13.70;99.90;;;;;;5011565;28;20064;-64
2022/10/21 05:44:40;;;;;;;24.88;10.88;;;13.80;99.90;;;;;;5011413;28;20065;-65
2022/10/21 05:47:07;;;;;;;16.67;9.40;;;13.70;99.90;;;;;;5011574;28;20069;-64
2022/10/21 05:49:33;;;;;;;25.55;10.68;;;13.70;99.90;;;;;;5011415;28;20057;-65
2022/10/21 05:52:01;;;;;;;22.17;10.07;;;13.80;99.90;;;;;;5011241;28;20508;-65
2022/10/21 05:54:28;;;;;;;24.45;10.00;;;13.80;99.90;;;;;;5011286;28;20042;-65
2022/10/21 05:56:55;;;;;;;18.45;9.77;;;13.80;99.90;;;;;;5011076;28;20045;-66
2022/10/21 05:59:22;;;;;;;17.13;9.27;;;13.70;99.90;;;;;;5011083;28;20050;-65
2022/10/21 06:01:49;;;;;;;22.08;10.15;;;13.70;99.90;;;;;;5010846;28;20529;-64
2022/10/21 06:04:16;;;;;;;14.35;8.88;;;13.80;99.90;;;;;;5010947;28;20488;-63
2022/10/21 06:06:43;;;;;;;20.20;8.40;;;13.80;99.90;;;;;;5009392;28;20141;-66
2022/10/21 06:09:09;;;;;;;16.85;8.20;;;13.80;99.90;;;;;;5011277;28;20050;-65
2022/10/21 06:11:36;;;;;;;16.98;9.18;;;13.90;99.90;;;;;;5010957;28;20042;-65
2022/10/21 06:14:03;;;;;;;19.42;9.57;;;13.80;99.90;;;;;;5010889;28;20046;-65
2022/10/21 06:16:33;;;;;;;16.83;9.20;;;13.90;99.90;;;;;;5010702;28;20046;-65
2022/10/21 06:19:01;;;;;;;16.50;9.25;;;13.90;99.90;;;;;;5010504;28;20487;-67
2022/10/21 06:21:27;;;;;;;20.88;8.60;;;13.90;99.90;;;;;;5010746;28;20235;-66
2022/10/21 06:23:54;;;;;;;19.20;8.07;;;13.90;99.90;;;;;;5025853;28;20046;-65
2022/10/21 06:26:21;;;;;;;21.65;9.85;;;13.90;99.90;;;;;;5010266;28;20412;-66
2022/10/21 06:28:48;;;;;;;16.23;7.03;;;14.00;99.90;;;;;;5010435;28;20054;-67
2022/10/21 06:31:17;;;;;;;14.30;7.70;;;14.00;99.90;;;;;;5010038;28;20554;-65
2022/10/21 06:33:43;;;;;;;21.45;7.20;;;14.00;99.90;;;;;;5010638;28;20050;-65
2022/10/21 06:36:10;;;;;;;14.80;8.75;;;14.10;99.90;;;;;;5010644;28;20157;-64
2022/10/21 06:38:37;;;;;;;21.65;9.07;;;14.10;99.90;;;;;;5010466;28;20050;-65
2022/10/21 06:41:06;;;;;;;14.20;7.47;;;14.10;99.90;;;;;;4661965;28;10000747;-64
2022/10/21 06:43:38;;;;;;;16.70;6.85;;;14.10;99.90;;;;;;5007372;28;20287;-64
2022/10/21 06:46:07;;;;;;;18.00;8.70;;;14.20;99.90;;;;;;5022368;28;20057;-64
2022/10/21 06:48:34;;;;;;;15.68;6.47;;;14.30;99.90;;;;;;5007309;28;20781;-66
2022/10/21 06:51:05;;;;;;;18.23;6.10;;;14.30;99.90;;;;;;5006541;28;20140;-67
2022/10/21 06:53:32;;;;;;;13.63;6.85;;;14.30;99.90;;;;;;5007490;28;20488;-64
2022/10/21 06:56:12;;;;;;;14.77;6.20;;;14.30;99.90;;;;;;5007764;28;20140;-65
2022/10/21 06:58:42;;;;;;;16.65;6.60;;;14.40;99.90;;;;;;5008094;28;20089;-66
2022/10/21 07:01:09;;;;;;;22.73;6.43;;;14.40;99.90;;;;;;5005888;28;20120;-66
2022/10/21 07:03:59;;;;;;;17.48;6.20;;;14.40;99.90;;;;;;5007349;28;20057;-67
2022/10/21 07:06:26;;;;;;;11.95;5.93;;;14.50;99.90;;;;;;5007362;28;20069;-67
2022/10/21 07:08:52;;;;;;;14.63;5.80;;;14.50;99.90;;;;;;5006836;28;20061;-67
2022/10/21 07:11:26;;;;;;;;;;;14.50;99.90;;;;;;5006997;28;20516;-66
2022/10/21 07:13:53;;;;;;;17.98;5.45;;;14.60;99.90;;;;;;4998396;28;19928;-66
2022/10/21 07:16:27;;;;;;;15.93;5.25;;;14.70;99.90;;;;;;5003011;28;20129;-67
2022/10/21 07:18:54;;;;;;;12.73;5.57;;;14.80;99.90;;;;;;5003741;28;20054;-65
2022/10/21 07:21:22;;;;;;;17.85;5.47;;;14.80;99.90;;;;;;5006373;28;20057;-67
2022/10/21 07:23:50;;;;;;;15.55;4.75;;;14.90;99.90;;;;;;5006011;28;20096;-67
2022/10/21 07:26:18;;;;;;;14.00;5.40;;;14.90;99.90;;;;;;5006553;28;20058;-67
2022/10/21 07:28:46;;;;;;;18.17;6.00;;;14.90;99.90;;;;;;5006288;28;20054;-68
2022/10/21 07:31:14;;;;;;;16.70;6.57;;;15.00;99.90;;;;;;5006178;28;20050;-68
2022/10/21 07:33:41;;;;;;;14.68;5.05;;;15.00;99.90;;;;;;5005877;28;20045;-67
2022/10/21 07:36:14;;;;;;;18.42;6.13;;;15.00;99.90;;;;;;5005755;28;20050;-68
2022/10/21 07:38:45;;;;;;;13.27;5.10;;;15.00;99.90;;;;;;5005192;28;20046;-67
2022/10/21 07:41:17;;;;;;;22.55;5.07;;;15.10;99.90;;;;;;5006318;28;20073;-68
2022/10/21 07:43:43;;;;;;;20.80;5.80;;;15.10;99.90;;;;;;5005872;28;20053;-68
2022/10/21 07:46:10;;;;;;;19.88;5.78;;;15.10;99.90;;;;;;5006307;28;20065;-68
2022/10/21 07:48:37;;;;;;;15.40;4.65;;;15.10;99.90;;;;;;5006141;28;20061;-68
2022/10/21 07:51:09;;;;;;;14.60;5.30;;;15.20;99.90;;;;;;5006144;28;20046;-68
2022/10/21 07:53:36;;;;;;;17.75;5.55;;;15.20;99.90;;;;;;5005811;28;20372;-65
2022/10/21 07:56:07;;;;;;;17.30;5.35;;;15.20;99.90;;;;;;5004590;28;20057;-68
2022/10/21 07:58:33;;;;;;;16.02;4.68;;;15.30;99.90;;;;;;5002915;28;20331;-68
2022/10/21 08:01:00;;;;;;;14.23;4.00;;;15.30;99.90;;;;;;5005681;28;20404;-68
2022/10/21 08:03:27;;;;;;;14.43;4.95;;;15.30;99.90;;;;;;5004442;28;20497;-68
2022/10/21 08:05:54;;;;;;;22.00;5.70;;;15.40;99.90;;;;;;5004952;28;20073;-68
2022/10/21 08:08:21;;;;;;;21.73;5.88;;;15.40;99.90;;;;;;5005910;28;20060;-68
2022/10/21 08:10:49;;;;;;;18.83;4.95;;;15.50;99.90;;;;;;5005521;28;20413;-67
2022/10/21 08:13:21;;;;;;;14.18;4.63;;;15.50;99.90;;;;;;5005774;28;20507;-67
2022/10/21 08:15:49;;;;;;;22.85;4.97;;;15.60;99.90;;;;;;4984517;28;20058;-68
2022/10/21 08:18:16;;;;;;;17.58;6.25;;;15.60;99.90;;;;;;5005216;28;20054;-68
2022/10/21 08:20:44;;;;;;;16.73;4.35;;;15.70;99.90;;;;;;5005456;28;20069;-67
2022/10/21 08:23:11;;;;;;;19.08;5.10;;;15.70;99.90;;;;;;5005647;28;20060;-68
2022/10/21 08:25:38;;;;;;;23.05;4.47;;;15.80;99.90;;;;;;5005242;28;20056;-68
2022/10/21 08:28:05;;;;;;;16.45;4.18;;;15.80;99.90;;;;;;5005672;28;20847;-68
2022/10/21 08:30:32;;;;;;;20.70;4.60;;;15.90;99.90;;;;;;5005353;28;20050;-67
2022/10/21 08:32:59;;;;;;;19.50;5.15;;;15.90;99.90;;;;;;5005931;28;20046;-68
2022/10/21 08:35:26;;;;;;;13.57;3.75;;;15.90;99.90;;;;;;5004509;28;20046;-67
2022/10/21 08:37:53;;;;;;;11.43;4.88;;;15.90;99.90;;;;;;5005791;28;20057;-67
2022/10/21 08:40:20;;;;;;;13.15;4.55;;;16.00;99.90;;;;;;5005094;28;20062;-68
2022/10/21 08:42:47;;;;;;;18.42;3.33;;;16.10;99.90;;;;;;5005344;28;20487;-68
2022/10/21 08:45:28;;;;;;;14.95;4.32;;;16.20;99.90;;;;;;5005324;28;20065;-67
2022/10/21 08:47:56;;;;;;;17.02;3.53;;;16.30;99.90;;;;;;5004416;28;20064;-67
2022/10/21 08:50:37;;;;;;;20.27;5.05;;;16.60;99.90;;;;;;5020627;28;20060;-66
2022/10/21 08:53:09;;;;;;;10.75;3.85;;;17.00;99.90;;;;;;4980845;28;20058;-70
2022/10/21 08:55:39;;;;;;;15.82;3.17;;;17.30;99.90;;;;;;4986766;28;20050;-68
2022/10/21 08:58:09;;;;;;;18.33;4.28;;;17.60;99.90;;;;;;5005316;28;20062;-72
2022/10/21 09:00:45;;;;;;;11.45;3.20;;;17.90;99.90;;;;;;5020369;28;20054;-68
2022/10/21 09:03:32;;;;;;;14.18;3.80;;;18.00;99.90;;;;;;5001461;28;20807;-69
2022/10/21 09:06:12;;;;;;;26.90;8.00;;;17.80;99.90;;;;;;4983952;28;20072;-68
2022/10/21 09:08:48;;;;;;;16.70;3.47;;;17.60;99.90;;;;;;5007270;28;20580;-69
2022/10/21 09:11:51;;;;;;;18.85;3.67;;;17.40;99.90;;;;;;5007903;28;20057;-66
2022/10/21 09:14:33;;;;;;;13.35;3.10;;;17.30;99.90;;;;;;5000604;28;20049;-68
2022/10/21 09:17:36;;;;;;;22.83;4.63;;;17.10;99.90;;;;;;5009131;28;20052;-69
2022/10/21 09:20:28;;;;;;;24.50;3.92;;;17.00;99.90;;;;;;5009204;28;20151;-68
2022/10/21 09:23:03;;;;;;;29.67;4.72;;;16.90;99.90;;;;;;5009484;28;20120;-67
2022/10/21 09:25:32;;;;;;;16.45;3.50;;;16.90;99.90;;;;;;5009827;28;20627;-66
2022/10/21 09:28:00;;;;;;;15.43;2.80;;;16.80;99.90;;;;;;5010063;28;20107;-66
2022/10/21 09:30:27;;;;;;;18.30;3.05;;;16.70;99.90;;;;;;5009670;28;20480;-67
2022/10/21 09:32:58;;;;;;;18.88;2.90;;;16.70;99.90;;;;;;5008911;28;20494;-68
2022/10/21 09:35:38;;;;;;;17.05;3.08;;;16.70;99.90;;;;;;5009350;28;20052;-68
2022/10/21 09:38:13;;;;;;;17.75;3.75;;;16.70;99.90;;;;;;5007646;28;20457;-65
2022/10/21 09:40:39;;;;;;;26.75;4.53;;;16.60;99.90;;;;;;5007334;28;20516;-68
2022/10/21 09:43:18;;;;;;;19.48;3.15;;;16.60;99.90;;;;;;5008604;28;20125;-68
2022/10/21 09:45:45;;;;;;;18.08;3.03;;;16.50;99.90;;;;;;5007686;28;20053;-68
2022/10/21 09:48:18;;;;;;;15.07;3.35;;;16.60;99.90;;;;;;5023731;28;20053;-67
2022/10/21 09:50:47;;;;;;;15.00;3.58;;;16.60;99.90;;;;;;5008922;28;20049;-70
2022/10/21 09:53:21;;;;;;;12.35;3.22;;;16.70;99.90;;;;;;5008683;28;20046;-68
2022/10/21 09:55:57;;;;;;;19.15;3.55;;;16.70;99.90;;;;;;5007425;28;20140;-69
2022/10/21 09:58:25;;;;;;;18.33;3.28;;;16.80;99.90;;;;;;4990331;28;20053;-69
2022/10/21 10:00:52;;;;;;;13.05;3.08;;;16.80;99.90;;;;;;5007187;28;20492;-70
2022/10/21 10:03:44;;;;;;;20.38;3.40;;;16.90;99.90;;;;;;5004037;28;20555;-68
2022/10/21 10:06:11;;;;;;;25.88;4.28;;;16.90;99.90;;;;;;5004617;28;20050;-69
2022/10/21 10:08:43;;;;;;;21.15;3.03;;;17.00;99.90;;;;;;5005821;28;20129;-68
2022/10/21 10:11:11;;;;;;;18.67;3.85;;;17.10;99.90;;;;;;5007116;28;20160;-69
2022/10/21 10:13:41;;;;;;;20.95;3.60;;;17.10;99.90;;;;;;5007489;28;20494;-68
2022/10/21 10:16:21;;;;;;;24.73;4.95;;;17.20;99.90;;;;;;5013099;28;20060;-71
2022/10/21 10:18:53;;;;;;;21.70;3.22;;;17.00;99.90;;;;;;5004197;28;20201;-72
2022/10/21 10:21:21;;;;;;;20.48;3.75;;;16.80;99.90;;;;;;5004071;28;20045;-72
2022/10/21 10:23:52;;;;;;;22.50;3.75;;;16.70;99.90;;;;;;5000024;28;20891;-72
2022/10/21 10:26:27;;;;;;;11.98;3.20;;;16.60;99.90;;;;;;5006318;28;20053;-73
2022/10/21 10:29:08;;;;;;;15.18;3.17;;;16.60;99.90;;;;;;5007068;28;20088;-71
2022/10/21 10:31:35;;;;;;;15.10;2.63;;;16.60;99.90;;;;;;4987546;28;20056;-72
2022/10/21 10:34:06;;;;;;;17.00;3.08;;;16.50;99.90;;;;;;5005862;28;20784;-70
2022/10/21 10:36:35;;;;;;;18.60;2.75;;;16.60;99.90;;;;;;5006260;28;20386;-71
2022/10/21 10:39:04;;;;;;;14.90;3.00;;;16.60;99.90;;;;;;5004587;28;20497;-72
2022/10/21 10:41:37;;;;;;;17.20;2.72;;;16.50;99.90;;;;;;5004616;28;20057;-71
2022/10/21 10:44:38;;;;;;;18.58;4.07;;;16.50;99.90;;;;;;5003150;28;20046;-72
2022/10/21 10:47:07;;;;;;;19.10;3.15;;;16.50;99.90;;;;;;5004866;28;20050;-71
2022/10/21 10:49:37;;;;;;;18.83;3.50;;;16.60;99.90;;;;;;5005844;28;20054;-72
2022/10/21 10:52:10;;;;;;;22.77;3.40;;;16.70;99.90;;;;;;5003946;28;20897;-70
2022/10/21 10:54:37;;;;;;;21.57;3.33;;;16.70;99.90;;;;;;5006534;28;20425;-70
2022/10/21 10:57:23;;;;;;;23.00;3.22;;;16.70;99.90;;;;;;5003853;28;20053;-71
2022/10/21 11:00:16;;;;;;;25.00;3.55;;;16.80;99.90;;;;;;5001927;28;20049;-70
2022/10/21 11:03:06;;;;;;;17.27;4.65;;;16.90;99.90;;;;;;5004268;28;20057;-73
2022/10/21 11:06:13;;;;;;;15.05;2.88;;;17.00;99.90;;;;;;5004662;28;20519;-69
2022/10/21 11:09:00;;;;;;;18.48;5.40;;;17.10;99.90;;;;;;4998828;28;20052;-70
2022/10/21 11:11:34;;;;;;;19.00;4.13;;;17.10;99.90;;;;;;5004250;28;20037;-70
2022/10/21 11:14:01;;;;;;;13.88;3.33;;;17.00;99.90;;;;;;4986048;28;20057;-71
2022/10/21 11:17:09;;;;;;;20.55;3.83;;;17.10;99.90;;;;;;4998002;28;20050;-70
2022/10/21 11:20:19;;;;;;;24.58;4.55;;;17.20;99.90;;;;;;5001772;28;20066;-70
2022/10/21 11:23:11;;;;;;;13.70;3.90;;;17.20;99.90;;;;;;4991823;28;20062;-70
2022/10/21 11:25:43;;;;;;;38.60;4.47;;;17.30;99.90;;;;;;5004097;28;20060;-70
2022/10/21 11:28:25;;;;;;;22.20;3.75;;;17.30;99.90;;;;;;5001469;28;20202;-69
2022/10/21 11:30:57;;;;;;;16.48;4.90;;;17.30;99.90;;;;;;5002465;28;20576;-70
2022/10/21 11:33:28;;;;;;;22.02;3.60;;;17.20;99.90;;;;;;5005098;28;20050;-70
2022/10/21 11:36:04;;;;;;;24.40;4.25;;;17.20;99.90;;;;;;5003501;28;20058;-70
2022/10/21 11:38:46;;;;;;;16.83;4.22;;;17.10;99.90;;;;;;5003417;28;20053;-70
2022/10/21 11:41:20;;;;;;;20.48;4.30;;;17.10;99.90;;;;;;5002149;28;20583;-70
2022/10/21 11:43:55;;;;;;;18.40;4.78;;;17.10;99.90;;;;;;5005009;28;20082;-69
2022/10/21 11:46:50;;;;;;;22.85;4.80;;;17.20;99.90;;;;;;5006619;28;20060;-68
2022/10/21 11:49:42;;;;;;;23.67;3.70;;;17.20;99.90;;;;;;4998240;28;20069;-69
2022/10/21 11:52:35;;;;;;;25.48;4.00;;;17.30;99.90;;;;;;5007726;28;20042;-69
2022/10/21 11:55:14;;;;;;;23.35;4.18;;;17.30;99.90;;;;;;4992735;28;20236;-68
2022/10/21 11:57:50;;;;;;;26.20;5.53;;;17.30;99.90;;;;;;5008556;28;20093;-68
2022/10/21 12:00:18;;;;;;;20.70;4.53;;;17.30;99.90;;;;;;5009146;28;20050;-69
2022/10/21 12:02:45;;;;;;;17.27;3.97;;;17.40;99.90;;;;;;5007023;28;20046;-69
2022/10/21 12:05:24;;;;;;;20.10;3.53;;;17.50;99.90;;;;;;5008195;28;20045;-69
2022/10/21 12:08:27;;;;;;;21.05;3.78;;;17.60;99.90;;;;;;5007838;28;20072;-67
2022/10/21 12:11:00;;;;;;;24.40;4.15;;;17.80;99.90;;;;;;5008667;28;20080;-70
2022/10/21 12:13:35;;;;;;;20.85;5.38;;;17.90;99.90;;;;;;5006138;28;20061;-66
2022/10/21 12:16:08;;;;;;;22.20;4.82;;;17.90;99.90;;;;;;4989622;28;20049;-66
2022/10/21 12:18:42;;;;;;;26.98;4.28;;;17.90;99.90;;;;;;5018891;28;20115;-67
2022/10/21 12:21:22;;;;;;;26.67;4.28;;;17.90;99.90;;;;;;5001928;28;20100;-67
2022/10/21 12:23:54;;;;;;;26.65;4.47;;;17.90;99.90;;;;;;5001896;28;20054;-65
2022/10/21 12:26:25;;;;;;;18.20;4.07;;;18.00;99.90;;;;;;5004964;28;20069;-66
2022/10/21 12:29:19;;;;;;;18.35;3.35;;;18.00;99.90;;;;;;5005654;28;20512;-63
2022/10/21 12:31:59;;;;;;;22.73;4.03;;;18.10;99.90;;;;;;5038241;28;20065;-64
2022/10/21 12:34:26;;;;;;;20.38;4.70;;;18.20;99.90;;;;;;5003695;28;20050;-65
2022/10/21 12:36:53;;;;;;;21.80;3.35;;;18.20;99.90;;;;;;5008026;28;20053;-65
2022/10/21 12:39:32;;;;;;;19.02;4.05;;;18.20;99.90;;;;;;5006720;28;20312;-64
2022/10/21 12:42:12;;;;;;;29.70;4.78;;;18.20;99.90;;;;;;5007752;28;20046;-64
2022/10/21 12:44:46;;;;;;;17.77;4.72;;;18.20;99.90;;;;;;5009513;28;20048;-63
2022/10/21 12:47:33;;;;;;;25.95;3.88;;;18.20;99.90;;;;;;5006785;28;20060;-65
2022/10/21 12:50:15;;;;;;;19.05;4.10;;;18.20;99.90;;;;;;5004993;28;20054;-63
2022/10/21 12:52:42;;;;;;;32.95;6.15;;;18.10;99.90;;;;;;5005570;28;20077;-64
2022/10/21 12:55:21;;;;;;;22.42;4.60;;;18.10;99.90;;;;;;5007144;28;20052;-65
2022/10/21 12:57:59;;;;;;;22.83;3.97;;;18.10;99.90;;;;;;5004896;28;20046;-65
2022/10/21 13:00:26;;;;;;;24.90;3.50;;;18.10;99.90;;;;;;5006528;28;20299;-64